KAUO/AUO METAR and TAF weather

Enter ICAO airport designator
Station Type Date Time Source
KAUO METAR 2019/10/20 18:56 UTC NOAA

KAUO 201856Z AUTO 22006KT 10SM SCT026 24/17 A2994 RMK AO2 SLP154 T02390172


Station Type Date Time Source
KAUO Decoded METAR 2019/10/20 18:56 UTC NOAA

Auburn-Opelika Airport, AL, United States (KAUO) 32-37N 085-26W
Oct 20, 2019 - 02:56 PM EDT / 2019.10.20 1856 UTC
Wind: from the SW (220 degrees) at 7 MPH (6 KT):0
Visibility: 10 mile(s):0
Sky conditions: partly cloudy
Temperature: 75.0 F (23.9 C)
Dew Point: 63.0 F (17.2 C)
Relative Humidity: 66%
Pressure (altimeter): 29.94 in. Hg (1013 hPa)
ob: KAUO 201856Z AUTO 22006KT 10SM SCT026 24/17 A2994 RMK AO2 SLP154 T02390172
cycle: 19

Station Type Date Time Source
KAUO TAF UTC NOAA

Error!

Example: see airport list